createdAt,value
2018-11-10T00:01:18.125Z,15.50
2018-11-10T00:03:44.215Z,15.40
2018-11-10T00:06:10.424Z,15.44
2018-11-10T00:08:36.512Z,15.42
2018-11-10T00:11:02.617Z,15.44
2018-11-10T00:13:29.502Z,15.34
2018-11-10T00:15:55.563Z,15.41
2018-11-10T00:18:22.582Z,15.47
2018-11-10T00:20:48.716Z,15.53
2018-11-10T00:23:16.092Z,15.45
2018-11-10T00:25:42.143Z,15.40
2018-11-10T00:28:08.219Z,15.32
2018-11-10T00:30:34.420Z,15.36
2018-11-10T00:33:00.649Z,15.43
2018-11-10T00:35:26.821Z,15.49
2018-11-10T00:37:53.648Z,15.57
2018-11-10T00:40:21.170Z,15.50
2018-11-10T00:42:47.350Z,15.38
2018-11-10T00:45:13.395Z,15.35
2018-11-10T00:47:39.545Z,15.37
2018-11-10T00:50:05.732Z,15.35
2018-11-10T00:52:31.915Z,15.44
2018-11-10T00:54:58.037Z,15.48
2018-11-10T00:57:24.805Z,15.46
2018-11-10T00:59:51.179Z,15.32
2018-11-10T01:02:17.913Z,15.30
2018-11-10T01:04:43.994Z,15.58
2018-11-10T01:07:10.078Z,15.64
2018-11-10T01:09:36.255Z,15.62
2018-11-10T01:12:02.374Z,15.55
2018-11-10T01:14:28.467Z,15.40
2018-11-10T01:16:55.229Z,15.24
2018-11-10T01:19:22.081Z,15.52
2018-11-10T01:21:48.233Z,15.44
2018-11-10T01:24:14.435Z,15.38
2018-11-10T01:26:40.684Z,15.35
2018-11-10T01:29:06.832Z,15.41
2018-11-10T01:31:34.550Z,15.40
2018-11-10T01:34:00.651Z,15.51
2018-11-10T01:36:26.845Z,15.43
2018-11-10T01:38:52.927Z,15.37
2018-11-10T01:41:18.993Z,15.48
2018-11-10T01:43:45.174Z,15.47
2018-11-10T01:46:11.310Z,15.34
2018-11-10T01:48:37.418Z,15.22
2018-11-10T01:51:03.547Z,15.32
2018-11-10T01:53:29.666Z,15.25
2018-11-10T01:55:55.696Z,15.23
2018-11-10T01:58:21.834Z,15.22
2018-11-10T02:00:48.376Z,15.34
2018-11-10T02:03:14.996Z,15.42
2018-11-10T02:05:41.148Z,15.37
2018-11-10T02:08:07.307Z,15.34
2018-11-10T02:10:33.401Z,15.39
2018-11-10T02:12:59.507Z,15.20
2018-11-10T02:15:25.772Z,15.29
2018-11-10T02:17:51.862Z,15.18
2018-11-10T02:20:19.188Z,15.32
2018-11-10T02:22:45.389Z,15.25
2018-11-10T02:25:11.813Z,15.22
2018-11-10T02:27:41.528Z,15.19
2018-11-10T02:30:07.592Z,15.03
2018-11-10T02:32:34.252Z,15.14
2018-11-10T02:35:00.470Z,15.17
2018-11-10T02:37:26.673Z,15.13
2018-11-10T02:39:53.012Z,15.19
2018-11-10T02:42:19.802Z,15.25
2018-11-10T02:44:45.983Z,15.27
2018-11-10T02:47:12.078Z,15.19
2018-11-10T02:49:38.869Z,15.25
2018-11-10T02:52:04.970Z,15.31
2018-11-10T02:54:31.047Z,15.39
2018-11-10T02:56:57.173Z,15.51
2018-11-10T02:59:23.918Z,15.51
2018-11-10T03:01:49.957Z,15.38
2018-11-10T03:04:16.986Z,15.48
2018-11-10T03:06:43.046Z,15.54
2018-11-10T03:09:10.488Z,15.47
2018-11-10T03:11:37.887Z,15.38
2018-11-10T03:14:03.953Z,15.53
2018-11-10T03:16:30.083Z,15.36
2018-11-10T03:18:56.171Z,15.13
2018-11-10T03:21:22.278Z,15.22
2018-11-10T03:23:48.391Z,15.33
2018-11-10T03:26:14.552Z,15.29
2018-11-10T03:28:40.637Z,15.34
2018-11-10T03:31:06.728Z,15.36
2018-11-10T03:33:32.955Z,15.37
2018-11-10T03:35:59.025Z,15.39
2018-11-10T03:38:25.086Z,15.26
2018-11-10T03:40:52.022Z,15.16
2018-11-10T03:43:18.111Z,15.05
2018-11-10T03:45:44.778Z,15.10
2018-11-10T03:48:11.070Z,15.17
2018-11-10T03:50:37.140Z,15.22
2018-11-10T03:53:03.185Z,15.03
2018-11-10T03:55:29.286Z,15.09
2018-11-10T03:57:55.358Z,15.05
2018-11-10T04:00:21.562Z,15.06
2018-11-10T04:02:47.805Z,15.21
2018-11-10T04:05:13.932Z,15.38
2018-11-10T04:07:41.295Z,15.51
2018-11-10T04:10:08.259Z,15.42
2018-11-10T04:12:34.293Z,15.46
2018-11-10T04:15:01.270Z,15.40
2018-11-10T04:17:27.494Z,15.46
2018-11-10T04:19:53.762Z,15.41
2018-11-10T04:22:19.969Z,15.48
2018-11-10T04:24:46.182Z,15.40
2018-11-10T04:27:12.373Z,15.41
2018-11-10T04:29:39.485Z,15.43
2018-11-10T04:32:06.198Z,15.51
2018-11-10T04:34:32.426Z,15.62
2018-11-10T04:36:58.700Z,15.42
2018-11-10T04:39:24.888Z,15.46
2018-11-10T04:41:51.015Z,15.48
2018-11-10T04:44:19.357Z,15.37
2018-11-10T04:46:45.422Z,15.38
2018-11-10T04:49:11.665Z,15.35
2018-11-10T04:54:08.918Z,15.36
2018-11-10T04:56:35.021Z,15.33
2018-11-10T04:59:01.078Z,15.29
2018-11-10T05:01:28.180Z,15.33
2018-11-10T05:03:54.166Z,15.38
2018-11-10T05:08:52.946Z,15.41
2018-11-10T05:11:18.989Z,15.41
2018-11-10T05:13:46.087Z,15.42
2018-11-10T05:16:12.160Z,15.38
2018-11-10T05:18:39.063Z,15.41
2018-11-10T05:21:05.065Z,15.36
2018-11-10T05:23:31.472Z,15.33
2018-11-10T05:25:57.611Z,15.33
2018-11-10T05:28:25.764Z,15.25
2018-11-10T05:30:52.129Z,15.26
2018-11-10T05:33:18.152Z,15.35
2018-11-10T05:40:48.485Z,15.32
2018-11-10T05:43:14.565Z,15.38
2018-11-10T05:45:41.477Z,15.32
2018-11-10T05:48:07.564Z,15.49
2018-11-10T05:50:33.673Z,15.35
2018-11-10T05:52:59.881Z,15.34
2018-11-10T05:55:26.070Z,15.30
2018-11-10T05:57:52.120Z,15.39
2018-11-10T06:00:18.409Z,15.41
2018-11-10T06:02:44.470Z,15.53
2018-11-10T06:05:10.534Z,15.52
2018-11-10T06:07:36.736Z,15.46
2018-11-10T06:10:02.943Z,15.39
2018-11-10T06:12:29.715Z,15.39
2018-11-10T06:14:55.783Z,15.32
2018-11-10T06:17:22.659Z,15.29
2018-11-10T06:19:48.820Z,15.33
2018-11-10T06:22:15.161Z,15.43
2018-11-10T06:24:41.344Z,15.52
2018-11-10T06:27:08.045Z,15.56
2018-11-10T06:29:34.156Z,15.68
2018-11-10T06:32:01.163Z,15.89
2018-11-10T06:34:27.419Z,16.07
2018-11-10T06:36:53.473Z,16.06
2018-11-10T06:39:19.587Z,16.17
2018-11-10T06:41:45.717Z,16.18
2018-11-10T06:44:11.760Z,16.22
2018-11-10T06:46:38.696Z,16.42
2018-11-10T06:49:05.382Z,16.51
2018-11-10T06:51:31.372Z,16.48
2018-11-10T06:54:01.108Z,16.46
2018-11-10T06:56:28.937Z,16.57
2018-11-10T06:58:55.916Z,16.65
2018-11-10T07:01:21.991Z,16.82
2018-11-10T07:03:48.487Z,16.98
2018-11-10T07:06:16.691Z,16.98
2018-11-10T07:08:42.778Z,17.12
2018-11-10T07:11:10.708Z,17.19
2018-11-10T07:13:38.023Z,17.15
2018-11-10T07:16:04.352Z,17.23
2018-11-10T07:18:30.486Z,17.23
2018-11-10T07:20:56.694Z,17.31
2018-11-10T07:23:23.839Z,17.43
2018-11-10T07:25:49.965Z,17.46
2018-11-10T07:28:16.155Z,17.50
2018-11-10T07:30:42.663Z,17.51
2018-11-10T07:33:08.740Z,17.53
2018-11-10T07:35:35.166Z,17.61
2018-11-10T07:38:01.241Z,17.58
2018-11-10T07:40:27.340Z,17.64
2018-11-10T07:42:53.524Z,17.58
2018-11-10T07:45:20.644Z,17.65
2018-11-10T07:50:19.186Z,17.72
2018-11-10T07:52:45.288Z,17.79
2018-11-10T07:55:11.453Z,17.77
2018-11-10T07:57:38.391Z,17.72
2018-11-10T08:02:36.857Z,17.69
2018-11-10T08:05:02.855Z,17.64
2018-11-10T08:07:32.287Z,17.72
2018-11-10T08:09:58.300Z,17.76
2018-11-10T08:12:24.473Z,17.82
2018-11-10T08:14:50.496Z,17.87
2018-11-10T08:17:16.496Z,17.91
2018-11-10T08:19:45.676Z,18.04
2018-11-10T08:22:33.306Z,18.08
2018-11-10T08:25:02.525Z,18.02
2018-11-10T08:27:32.951Z,17.96
2018-11-10T08:30:00.226Z,17.92
2018-11-10T08:32:26.311Z,17.94
2018-11-10T08:34:52.386Z,18.04
2018-11-10T08:37:18.502Z,18.07
2018-11-10T08:39:44.513Z,18.13
2018-11-10T08:42:10.556Z,18.19
2018-11-10T08:44:36.545Z,18.21
2018-11-10T08:47:02.561Z,18.18
2018-11-10T08:49:28.672Z,18.21
2018-11-10T08:51:54.744Z,18.22
2018-11-10T08:54:22.983Z,18.22
2018-11-10T08:56:49.122Z,18.25
2018-11-10T08:59:16.011Z,18.15
2018-11-10T09:01:43.137Z,18.23
2018-11-10T09:04:10.145Z,18.23
2018-11-10T09:06:36.284Z,18.24
2018-11-10T09:09:06.880Z,18.23
2018-11-10T09:11:32.944Z,18.31
2018-11-10T09:13:58.955Z,18.33
2018-11-10T09:16:28.577Z,18.30
2018-11-10T09:18:55.158Z,18.23
2018-11-10T09:21:23.286Z,18.22
2018-11-10T09:23:50.341Z,18.17
2018-11-10T09:26:16.640Z,18.19
2018-11-10T09:28:42.677Z,18.29
2018-11-10T09:31:08.694Z,18.18
2018-11-10T09:33:34.810Z,18.03
2018-11-10T09:36:01.026Z,18.13
2018-11-10T09:38:29.234Z,18.28
2018-11-10T09:40:55.390Z,18.24
2018-11-10T09:43:21.387Z,18.21
2018-11-10T09:45:48.459Z,18.18
2018-11-10T09:48:14.541Z,18.10
2018-11-10T09:50:42.444Z,18.01
2018-11-10T09:53:08.478Z,17.97
2018-11-10T09:55:34.578Z,17.94
2018-11-10T09:58:00.532Z,17.73
2018-11-10T10:00:26.504Z,17.66
2018-11-10T10:02:52.632Z,17.77
2018-11-10T10:05:18.487Z,17.94
2018-11-10T10:07:44.501Z,18.04
2018-11-10T10:10:10.574Z,18.08
2018-11-10T10:12:37.411Z,17.96
2018-11-10T10:15:03.483Z,17.83
2018-11-10T10:17:29.501Z,17.86
2018-11-10T10:19:55.485Z,17.95
2018-11-10T10:22:22.458Z,17.87
2018-11-10T10:24:48.597Z,17.81
2018-11-10T10:27:14.707Z,17.78
2018-11-10T10:29:41.395Z,17.76
2018-11-10T10:32:09.306Z,17.75
2018-11-10T10:34:35.381Z,17.65
2018-11-10T10:39:39.243Z,17.67
2018-11-10T10:42:06.093Z,17.67
2018-11-10T10:44:32.254Z,17.65
2018-11-10T10:49:29.953Z,17.86
2018-11-10T10:51:57.612Z,17.95
2018-11-10T10:54:24.764Z,17.80
2018-11-10T10:56:52.885Z,17.73
2018-11-10T11:01:53.804Z,17.70
2018-11-10T11:04:20.639Z,17.67
2018-11-10T11:06:46.748Z,17.67
2018-11-10T11:09:12.834Z,17.60
2018-11-10T11:11:38.828Z,17.56
2018-11-10T11:14:04.906Z,17.55
2018-11-10T11:16:30.994Z,17.57
2018-11-10T11:18:57.112Z,17.79
2018-11-10T11:21:24.513Z,17.93
2018-11-10T11:23:50.591Z,18.08
2018-11-10T11:29:00.671Z,17.97
2018-11-10T11:31:30.264Z,17.91
2018-11-10T11:33:57.531Z,17.97
2018-11-10T11:36:24.497Z,18.13
2018-11-10T11:38:50.533Z,18.17
2018-11-10T11:41:16.698Z,18.11
2018-11-10T11:43:42.646Z,18.04
2018-11-10T11:46:08.656Z,17.99
2018-11-10T11:48:34.673Z,17.96
2018-11-10T11:51:00.653Z,17.98
2018-11-10T11:53:26.633Z,18.06
2018-11-10T11:55:52.624Z,18.14
2018-11-10T11:58:18.716Z,18.04
2018-11-10T12:00:44.600Z,17.95
2018-11-10T12:03:10.572Z,17.99
2018-11-10T12:05:36.644Z,18.08
2018-11-10T12:08:02.700Z,18.13
2018-11-10T12:10:28.706Z,18.24
2018-11-10T12:12:54.770Z,18.38
2018-11-10T12:15:20.772Z,18.51
2018-11-10T12:17:47.597Z,18.60
2018-11-10T12:20:13.597Z,18.63
2018-11-10T12:22:39.581Z,18.63
2018-11-10T12:25:05.571Z,18.57
2018-11-10T12:27:31.655Z,18.65
2018-11-10T12:29:57.661Z,18.75
2018-11-10T12:32:23.734Z,18.90
2018-11-10T12:34:49.884Z,19.08
2018-11-10T12:37:15.942Z,19.06
2018-11-10T12:39:42.043Z,19.06
2018-11-10T12:42:08.067Z,18.99
2018-11-10T12:44:34.142Z,18.73
2018-11-10T12:47:00.128Z,18.64
2018-11-10T12:49:27.172Z,18.61
2018-11-10T12:51:53.160Z,18.64
2018-11-10T12:54:19.205Z,18.75
2018-11-10T12:56:45.380Z,18.68
2018-11-10T12:59:11.484Z,18.61
2018-11-10T13:01:37.516Z,18.66
2018-11-10T13:04:03.496Z,18.75
2018-11-10T13:06:29.561Z,18.72
2018-11-10T13:08:55.624Z,18.68
2018-11-10T13:11:21.840Z,18.71
2018-11-10T13:13:47.769Z,18.69
2018-11-10T13:16:13.750Z,18.67
2018-11-10T13:18:39.765Z,18.60
2018-11-10T13:21:05.732Z,18.65
2018-11-10T13:23:31.692Z,18.65
2018-11-10T13:25:57.637Z,18.62
2018-11-10T13:28:23.622Z,18.57
2018-11-10T13:30:50.361Z,18.55
2018-11-10T13:33:16.363Z,18.59
2018-11-10T13:35:42.354Z,18.53
2018-11-10T13:38:08.359Z,18.51
2018-11-10T13:40:34.290Z,18.43
2018-11-10T13:43:00.268Z,18.29
2018-11-10T13:45:26.247Z,18.39
2018-11-10T13:47:52.248Z,18.40
2018-11-10T13:50:18.269Z,18.39
2018-11-10T13:52:44.533Z,18.43
2018-11-10T13:55:10.287Z,18.46
2018-11-10T13:57:36.284Z,18.47
2018-11-10T14:00:02.267Z,18.46
2018-11-10T14:02:28.217Z,18.51
2018-11-10T14:04:54.188Z,18.52
2018-11-10T14:07:20.156Z,18.61
2018-11-10T14:09:46.116Z,18.63
2018-11-10T14:12:12.090Z,18.55
2018-11-10T14:14:38.111Z,18.53
2018-11-10T14:17:04.067Z,18.47
2018-11-10T14:19:31.105Z,18.62
2018-11-10T14:21:57.086Z,18.61
2018-11-10T14:24:23.050Z,18.52
2018-11-10T14:31:56.504Z,18.50
2018-11-10T14:34:22.475Z,18.54
2018-11-10T14:36:48.462Z,18.51
2018-11-10T14:39:14.448Z,18.46
2018-11-10T14:41:40.428Z,18.46
2018-11-10T14:44:06.500Z,18.56
2018-11-10T14:46:32.442Z,18.47
2018-11-10T14:48:58.409Z,18.37
2018-11-10T14:51:24.383Z,18.36
2018-11-10T14:53:50.366Z,18.42
2018-11-10T14:56:16.340Z,18.45
2018-11-10T14:58:42.420Z,18.46
2018-11-10T15:01:08.324Z,18.42
2018-11-10T15:03:34.339Z,18.47
2018-11-10T15:06:00.372Z,18.47
2018-11-10T15:08:26.392Z,18.45
2018-11-10T15:10:52.422Z,18.40
2018-11-10T15:13:18.457Z,18.40
2018-11-10T15:15:44.460Z,18.46
2018-11-10T15:18:10.655Z,18.34
2018-11-10T15:20:37.249Z,18.32
2018-11-10T15:23:03.283Z,18.27
2018-11-10T15:25:30.277Z,18.32
2018-11-10T15:27:56.312Z,18.27
2018-11-10T15:30:22.423Z,18.23
2018-11-10T15:32:48.458Z,18.26
2018-11-10T15:35:14.585Z,18.31
2018-11-10T15:37:40.755Z,18.46
2018-11-10T15:40:06.737Z,18.41
2018-11-10T15:42:32.756Z,18.44
2018-11-10T15:44:58.839Z,18.37
2018-11-10T15:47:24.934Z,18.36
2018-11-10T15:49:50.930Z,18.33
2018-11-10T15:52:16.957Z,18.40
2018-11-10T15:54:43.075Z,18.39
2018-11-10T15:57:09.220Z,18.48
2018-11-10T15:59:35.263Z,18.51
2018-11-10T16:02:01.323Z,18.40
2018-11-10T16:04:27.423Z,18.42
2018-11-10T16:06:53.458Z,18.41
2018-11-10T16:09:19.652Z,18.41
2018-11-10T16:11:45.752Z,18.40
2018-11-10T16:14:11.819Z,18.31
2018-11-10T16:16:37.865Z,18.34
2018-11-10T16:19:03.902Z,18.33
2018-11-10T16:21:30.038Z,18.26
2018-11-10T16:23:56.080Z,18.24
2018-11-10T16:26:22.277Z,18.22
2018-11-10T16:28:48.289Z,18.16
2018-11-10T16:31:14.406Z,18.15
2018-11-10T16:33:40.494Z,18.15
2018-11-10T16:36:06.676Z,18.16
2018-11-10T16:38:32.780Z,18.16
2018-11-10T16:40:58.910Z,18.09
2018-11-10T16:43:24.959Z,18.07
2018-11-10T16:48:22.981Z,17.86
2018-11-10T16:50:50.276Z,17.83
2018-11-10T16:53:16.815Z,17.80
2018-11-10T16:55:42.931Z,17.86
2018-11-10T16:58:08.967Z,17.87
2018-11-10T17:05:42.498Z,17.89
2018-11-10T17:08:09.321Z,17.93
2018-11-10T17:10:38.047Z,17.24
2018-11-10T17:13:04.884Z,17.94
2018-11-10T17:15:31.016Z,17.84
2018-11-10T17:17:58.025Z,17.78
2018-11-10T17:20:24.921Z,17.66
2018-11-10T17:32:57.065Z,17.63
2018-11-10T17:35:23.856Z,17.71
2018-11-10T17:37:49.915Z,17.70
2018-11-10T17:40:18.767Z,17.55
2018-11-10T17:42:47.216Z,17.55
2018-11-10T17:45:14.598Z,17.42
2018-11-10T17:47:40.699Z,17.51
2018-11-10T17:56:49.334Z,16.52
2018-11-10T17:59:15.276Z,16.57
2018-11-10T18:01:42.140Z,16.87
2018-11-10T18:04:07.953Z,16.99
2018-11-10T18:06:33.939Z,17.07
2018-11-10T18:08:59.992Z,16.98
2018-11-10T18:11:26.812Z,16.96
2018-11-10T18:13:52.774Z,17.16
2018-11-10T18:16:18.762Z,17.19
2018-11-10T18:18:44.744Z,17.10
2018-11-10T18:21:10.748Z,17.11
2018-11-10T18:23:36.745Z,17.07
2018-11-10T18:26:02.736Z,17.04
2018-11-10T18:28:31.832Z,17.06
2018-11-10T18:30:57.832Z,17.02
2018-11-10T18:33:23.881Z,16.98
2018-11-10T18:35:49.901Z,17.06
2018-11-10T18:38:15.898Z,16.86
2018-11-10T18:40:41.862Z,16.90
2018-11-10T18:43:07.833Z,16.92
2018-11-10T18:45:33.785Z,16.90
2018-11-10T18:47:59.748Z,16.87
2018-11-10T18:50:25.705Z,16.90
2018-11-10T18:52:51.796Z,16.83
2018-11-10T18:55:17.861Z,16.79
2018-11-10T18:57:44.717Z,16.81
2018-11-10T19:00:10.561Z,16.81
2018-11-10T19:02:36.531Z,16.73
2018-11-10T19:05:02.537Z,16.84
2018-11-10T19:07:28.593Z,16.93
2018-11-10T19:09:55.721Z,16.73
2018-11-10T19:12:21.986Z,16.56
2018-11-10T19:14:48.100Z,16.53
2018-11-10T19:17:14.311Z,16.55
2018-11-10T19:19:40.318Z,16.52
2018-11-10T19:22:07.100Z,16.51
2018-11-10T19:24:33.196Z,16.69
2018-11-10T19:26:59.235Z,16.85
2018-11-10T19:29:25.841Z,16.74
2018-11-10T19:31:55.512Z,16.75
2018-11-10T19:34:21.579Z,16.92
2018-11-10T19:36:47.624Z,16.76
2018-11-10T19:39:14.352Z,16.83
2018-11-10T19:41:40.407Z,16.71
2018-11-10T19:44:06.598Z,16.69
2018-11-10T19:46:33.854Z,16.59
2018-11-10T19:49:00.001Z,16.58
2018-11-10T19:51:26.160Z,16.67
2018-11-10T19:53:52.082Z,16.72
2018-11-10T19:56:19.093Z,16.01
2018-11-10T19:58:47.861Z,16.42
2018-11-10T20:01:13.969Z,16.38
2018-11-10T20:03:40.115Z,16.35
2018-11-10T20:06:06.344Z,16.37
2018-11-10T20:08:32.546Z,16.35
2018-11-10T20:10:58.604Z,16.26
2018-11-10T20:13:24.634Z,16.44
2018-11-10T20:15:50.619Z,16.46
2018-11-10T20:18:16.679Z,16.46
2018-11-10T20:20:42.760Z,16.52
2018-11-10T20:23:08.800Z,16.51
2018-11-10T20:25:38.557Z,16.51
2018-11-10T20:30:41.318Z,16.37
2018-11-10T20:33:07.333Z,16.25
2018-11-10T20:35:33.324Z,16.19
2018-11-10T20:37:59.305Z,16.09
2018-11-10T20:40:25.271Z,16.08
2018-11-10T20:42:51.274Z,15.98
2018-11-10T20:45:17.311Z,16.12
2018-11-10T20:47:43.313Z,16.23
2018-11-10T20:50:09.365Z,16.27
2018-11-10T20:52:35.356Z,16.26
2018-11-10T20:55:01.370Z,16.47
2018-11-10T20:57:27.347Z,16.43
2018-11-10T20:59:53.338Z,16.32
2018-11-10T21:02:19.370Z,16.26
2018-11-10T21:04:45.376Z,16.28
2018-11-10T21:07:11.393Z,16.34
2018-11-10T21:09:37.366Z,16.33
2018-11-10T21:12:03.400Z,16.21
2018-11-10T21:14:29.397Z,16.26
2018-11-10T21:16:55.397Z,16.37
2018-11-10T21:19:21.357Z,16.27
2018-11-10T21:21:47.365Z,16.21
2018-11-10T21:24:13.371Z,16.19
2018-11-10T21:26:39.431Z,16.36
2018-11-10T21:29:05.552Z,16.50
2018-11-10T21:31:32.780Z,16.55
2018-11-10T21:33:58.934Z,16.70
2018-11-10T21:41:27.626Z,16.78
2018-11-10T21:51:27.588Z,16.49
2018-11-10T21:53:53.607Z,16.36
2018-11-10T21:56:19.561Z,16.41
2018-11-10T21:58:45.516Z,16.59
2018-11-10T22:01:11.529Z,16.66
2018-11-10T22:03:37.514Z,16.54
2018-11-10T22:06:03.491Z,16.53
2018-11-10T22:08:29.479Z,16.52
2018-11-10T22:10:55.481Z,16.46
2018-11-10T22:13:21.463Z,16.52
2018-11-10T22:15:47.533Z,16.60
2018-11-10T22:18:13.498Z,16.46
2018-11-10T22:20:40.285Z,16.38
2018-11-10T22:23:06.387Z,16.36
2018-11-10T22:25:32.313Z,16.34
2018-11-10T22:27:58.970Z,16.06
2018-11-10T22:30:27.559Z,16.11
2018-11-10T22:32:53.645Z,16.18
2018-11-10T22:35:19.702Z,16.24
2018-11-10T22:37:46.362Z,16.23
2018-11-10T22:40:12.499Z,16.11
2018-11-10T22:42:39.658Z,15.93
2018-11-10T22:45:08.554Z,15.95
2018-11-10T22:47:35.322Z,15.94
2018-11-10T22:50:01.433Z,15.97
2018-11-10T22:52:27.543Z,16.04
2018-11-10T22:54:53.615Z,15.92
2018-11-10T22:59:50.810Z,15.83
2018-11-10T23:02:16.909Z,15.89
2018-11-10T23:04:42.900Z,15.99
2018-11-10T23:07:09.182Z,15.89
2018-11-10T23:09:36.237Z,16.00
2018-11-10T23:12:02.356Z,16.01
2018-11-10T23:14:29.043Z,15.93
2018-11-10T23:16:55.185Z,15.95
2018-11-10T23:19:22.065Z,15.99
2018-11-10T23:21:48.142Z,15.95
2018-11-10T23:24:14.805Z,15.81
2018-11-10T23:26:40.855Z,15.85
2018-11-10T23:29:06.893Z,15.84
2018-11-10T23:31:32.930Z,15.89
2018-11-10T23:33:59.021Z,15.71
2018-11-10T23:36:25.813Z,15.62
2018-11-10T23:38:53.887Z,15.57
2018-11-10T23:41:23.205Z,15.68
2018-11-10T23:43:50.644Z,15.78
2018-11-10T23:46:17.692Z,15.71
2018-11-10T23:48:44.022Z,15.70
2018-11-10T23:51:10.236Z,15.69
2018-11-10T23:53:36.390Z,15.64
2018-11-10T23:56:02.910Z,15.70
2018-11-10T23:58:29.124Z,15.74
